Terminal Aerodrome Forecast
Issued by NWS

Home | Current Version | Previous Version | Graphics & Text | Print | Product List | Glossary On
Versions: 1 2 3 4 5 6 7 8 9 10 11 12 13 14 15 16
000
FTUS43 KICT 231455 AAA
TAFRSL
TAF AMD
KRSL 231455Z 2315/2412 34026G33KT P6SM VCSH SCT025 BKN060
     FM231800 34027G34KT P6SM -RA BKN025
     FM232200 34026G33KT P6SM SCT060 BKN100
     FM240300 32017KT P6SM FEW100 SCT200=

USA.gov is the U.S. government's official web portal to all federal, state and local government web resources and services.